createdAt,value
2023-03-17T00:00:47.366Z,5.97
2023-03-17T00:05:40.932Z,6.25
2023-03-17T00:10:34.027Z,5.32
2023-03-17T00:15:27.761Z,5.88
2023-03-17T00:20:33.173Z,8.18
2023-03-17T00:25:30.577Z,6.75
2023-03-17T00:30:24.874Z,8.23
2023-03-17T00:35:20.851Z,8.75
2023-03-17T00:40:31.802Z,6.20
2023-03-17T00:45:33.385Z,6.47
2023-03-17T00:50:28.761Z,6.93
2023-03-17T00:55:21.640Z,6.57
2023-03-17T01:00:30.202Z,6.03
2023-03-17T01:05:24.822Z,6.53
2023-03-17T01:10:21.480Z,6.72
2023-03-17T01:15:16.249Z,5.82
2023-03-17T01:20:17.030Z,6.50
2023-03-17T01:25:12.618Z,6.32
2023-03-17T01:30:08.720Z,6.70
2023-03-17T01:35:01.695Z,6.32
2023-03-17T01:39:55.405Z,6.97
2023-03-17T01:45:09.489Z,6.72
2023-03-17T01:50:11.355Z,6.32
2023-03-17T01:55:13.228Z,6.38
2023-03-17T02:00:07.428Z,7.33
2023-03-17T02:05:12.419Z,7.78
2023-03-17T02:10:07.473Z,6.18
2023-03-17T02:15:04.055Z,6.60
2023-03-17T02:19:57.635Z,6.82
2023-03-17T02:24:57.132Z,7.28
2023-03-17T02:29:51.207Z,6.68
2023-03-17T02:34:44.381Z,8.18
2023-03-17T02:39:38.083Z,7.78
2023-03-17T02:44:31.780Z,7.25
2023-03-17T02:49:24.937Z,8.70
2023-03-17T02:54:17.928Z,7.53
2023-03-17T02:59:11.460Z,7.80
2023-03-17T03:04:04.629Z,8.25
2023-03-17T03:08:58.176Z,8.05
2023-03-17T03:13:51.172Z,7.93
2023-03-17T03:18:44.360Z,7.13
2023-03-17T03:23:38.387Z,7.28
2023-03-17T03:28:31.680Z,6.90
2023-03-17T03:33:25.181Z,7.68
2023-03-17T03:38:18.279Z,8.10
2023-03-17T03:43:22.535Z,7.25
2023-03-17T03:48:16.382Z,8.23
2023-03-17T03:53:09.451Z,8.55
2023-03-17T03:58:02.626Z,8.85
2023-03-17T04:02:56.018Z,8.52
2023-03-17T04:07:50.345Z,6.90
2023-03-17T04:12:44.469Z,6.65
2023-03-17T04:17:38.149Z,6.55
2023-03-17T04:22:32.614Z,6.90
2023-03-17T04:27:25.934Z,6.78
2023-03-17T04:32:19.987Z,7.63
2023-03-17T04:37:13.713Z,6.95
2023-03-17T04:42:08.478Z,7.43
2023-03-17T04:47:01.538Z,6.82
2023-03-17T04:51:54.793Z,7.32
2023-03-17T04:56:47.560Z,7.20
2023-03-17T05:01:40.235Z,7.38
2023-03-17T05:06:33.432Z,8.32
2023-03-17T05:11:26.338Z,8.70
2023-03-17T05:16:18.340Z,7.97
2023-03-17T05:21:12.871Z,7.68
2023-03-17T05:26:07.415Z,7.72
2023-03-17T05:31:00.633Z,7.20
2023-03-17T05:35:53.990Z,7.60
2023-03-17T05:40:49.302Z,6.88
2023-03-17T05:45:43.324Z,7.68
2023-03-17T05:50:38.308Z,7.15
2023-03-17T05:55:31.512Z,7.60
2023-03-17T06:00:25.054Z,8.70
2023-03-17T06:05:19.025Z,6.90
2023-03-17T06:10:14.708Z,5.90
2023-03-17T06:15:10.281Z,6.75
2023-03-17T06:20:04.806Z,7.57
2023-03-17T06:24:58.021Z,7.80
2023-03-17T06:29:51.417Z,10.13
2023-03-17T06:34:45.140Z,9.23
2023-03-17T06:39:38.122Z,8.45
2023-03-17T06:44:31.173Z,8.35
2023-03-17T06:49:24.162Z,9.02
2023-03-17T06:54:18.375Z,8.10
2023-03-17T06:59:12.267Z,8.32
2023-03-17T07:04:06.361Z,8.88
2023-03-17T07:09:02.203Z,7.28
2023-03-17T07:13:55.780Z,7.28
2023-03-17T07:18:48.881Z,7.93
2023-03-17T07:23:41.828Z,7.38
2023-03-17T07:28:35.411Z,7.40
2023-03-17T07:33:28.546Z,8.13
2023-03-17T07:38:22.473Z,7.68
2023-03-17T07:43:17.849Z,7.47
2023-03-17T07:48:11.547Z,7.22
2023-03-17T07:53:05.481Z,6.15
2023-03-17T07:57:59.628Z,7.15
2023-03-17T08:03:07.006Z,7.93
2023-03-17T08:08:01.977Z,7.35
2023-03-17T08:12:54.724Z,7.97
2023-03-17T08:17:48.370Z,7.60
2023-03-17T08:22:41.956Z,7.68
2023-03-17T08:27:34.449Z,8.18
2023-03-17T08:32:27.427Z,8.85
2023-03-17T08:37:22.322Z,9.80
2023-03-17T08:42:15.752Z,12.30
2023-03-17T08:47:08.757Z,11.23
2023-03-17T08:52:03.150Z,14.32
2023-03-17T08:56:57.430Z,13.55
2023-03-17T09:01:52.485Z,16.40
2023-03-17T09:07:01.941Z,17.75
2023-03-17T09:11:55.718Z,11.45
2023-03-17T09:16:50.442Z,19.80
2023-03-17T09:21:43.875Z,6.30
2023-03-17T09:26:37.672Z,6.03
2023-03-17T09:31:31.101Z,6.07
2023-03-17T09:36:25.003Z,6.25
2023-03-17T09:41:26.608Z,5.88
2023-03-17T09:46:25.517Z,7.22
2023-03-17T09:51:20.483Z,7.18
2023-03-17T09:56:15.619Z,5.60
2023-03-17T10:01:13.553Z,3.15
2023-03-17T10:06:37.050Z,3.50
2023-03-17T10:11:59.694Z,3.10
2023-03-17T10:16:58.774Z,2.45
2023-03-17T10:21:58.140Z,2.20
2023-03-17T10:26:53.639Z,2.25
2023-03-17T10:31:47.638Z,2.72
2023-03-17T10:36:43.261Z,2.05
2023-03-17T10:41:40.454Z,2.10
2023-03-17T10:46:33.924Z,1.95
2023-03-17T10:51:33.846Z,2.00
2023-03-17T10:56:28.380Z,2.20
2023-03-17T11:01:21.600Z,2.42
2023-03-17T11:06:19.511Z,2.65
2023-03-17T11:11:24.005Z,2.30
2023-03-17T11:16:25.905Z,3.22
2023-03-17T11:21:48.196Z,2.72
2023-03-17T11:26:43.797Z,3.20
2023-03-17T11:31:45.730Z,3.15
2023-03-17T11:36:50.920Z,2.67
2023-03-17T11:42:02.142Z,2.85
2023-03-17T11:47:06.829Z,2.63
2023-03-17T11:52:14.518Z,2.22
2023-03-17T11:57:33.157Z,2.63
2023-03-17T12:02:30.334Z,3.58
2023-03-17T12:12:28.201Z,3.05
2023-03-17T12:17:38.341Z,2.47
2023-03-17T12:22:35.994Z,2.22
2023-03-17T12:27:35.069Z,2.60
2023-03-17T12:32:33.989Z,2.80
2023-03-17T12:37:28.221Z,2.60
2023-03-17T12:42:41.744Z,3.63
2023-03-17T12:47:59.197Z,2.30
2023-03-17T12:53:29.956Z,2.97
2023-03-17T12:58:30.479Z,2.80
2023-03-17T13:03:30.788Z,2.83
2023-03-17T13:08:31.422Z,2.95
2023-03-17T13:14:28.854Z,2.63
2023-03-17T13:19:23.320Z,2.30
2023-03-17T13:24:18.796Z,2.90
2023-03-17T13:29:25.745Z,3.00
2023-03-17T13:34:20.741Z,3.10
2023-03-17T13:39:57.586Z,3.63
2023-03-17T13:45:34.067Z,3.30
2023-03-17T13:50:32.097Z,3.70
2023-03-17T13:55:24.935Z,2.97
2023-03-17T14:00:24.568Z,3.38
2023-03-17T14:05:25.068Z,3.80
2023-03-17T14:10:22.189Z,4.13
2023-03-17T14:15:52.015Z,3.05
2023-03-17T14:21:04.699Z,3.63
2023-03-17T14:26:00.863Z,4.40
2023-03-17T14:30:57.246Z,4.13
2023-03-17T14:35:52.902Z,4.53
2023-03-17T14:40:47.276Z,4.72
2023-03-17T14:45:50.023Z,4.18
2023-03-17T14:50:53.158Z,3.75
2023-03-17T14:55:47.463Z,3.90
2023-03-17T15:00:50.226Z,3.38
2023-03-17T15:05:46.106Z,3.80
2023-03-17T15:10:42.568Z,4.63
2023-03-17T15:15:38.732Z,4.28
2023-03-17T15:20:35.511Z,4.72
2023-03-17T15:25:50.941Z,4.57
2023-03-17T15:30:47.878Z,4.53
2023-03-17T15:35:42.271Z,3.90
2023-03-17T15:40:35.591Z,5.68
2023-03-17T15:45:28.320Z,3.83
2023-03-17T15:50:24.991Z,4.28
2023-03-17T15:55:22.021Z,5.15
2023-03-17T16:00:20.981Z,4.93
2023-03-17T16:05:24.348Z,4.03
2023-03-17T16:10:45.673Z,3.92
2023-03-17T16:15:41.399Z,3.80
2023-03-17T16:20:42.608Z,4.68
2023-03-17T16:25:37.689Z,5.00
2023-03-17T16:30:33.946Z,5.63
2023-03-17T16:35:27.465Z,5.05
2023-03-17T16:40:29.589Z,6.00
2023-03-17T16:45:25.590Z,4.80
2023-03-17T16:50:20.400Z,5.10
2023-03-17T16:55:14.330Z,5.07
2023-03-17T17:00:10.313Z,5.68
2023-03-17T17:05:03.207Z,5.13
2023-03-17T17:09:55.852Z,5.18
2023-03-17T17:14:49.088Z,5.63
2023-03-17T17:19:43.348Z,5.82
2023-03-17T17:24:36.438Z,6.82
2023-03-17T17:29:32.292Z,6.75
2023-03-17T17:34:26.821Z,7.20
2023-03-17T17:39:20.592Z,9.13
2023-03-17T17:44:14.306Z,7.30
2023-03-17T17:49:07.520Z,6.80
2023-03-17T17:54:00.850Z,6.63
2023-03-17T17:58:54.782Z,6.53
2023-03-17T18:03:48.139Z,7.47
2023-03-17T18:08:41.594Z,6.30
2023-03-17T18:13:39.669Z,8.07
2023-03-17T18:18:32.883Z,7.53
2023-03-17T18:23:25.877Z,7.88
2023-03-17T18:28:19.338Z,8.60
2023-03-17T18:33:18.591Z,10.10
2023-03-17T18:38:12.691Z,13.50
2023-03-17T18:43:06.046Z,13.10
2023-03-17T18:47:59.596Z,11.15
2023-03-17T18:52:53.001Z,10.98
2023-03-17T18:57:46.428Z,11.93
2023-03-17T19:02:38.900Z,12.95
2023-03-17T19:07:32.909Z,16.30
2023-03-17T19:12:25.799Z,12.50
2023-03-17T19:17:19.308Z,11.52
2023-03-17T19:22:13.578Z,10.73
2023-03-17T19:27:07.224Z,10.45
2023-03-17T19:32:00.866Z,12.30
2023-03-17T19:36:54.440Z,11.98
2023-03-17T19:41:48.607Z,12.30
2023-03-17T19:46:42.223Z,12.02
2023-03-17T19:51:35.909Z,12.70
2023-03-17T19:56:29.841Z,11.23
2023-03-17T20:01:23.915Z,13.32
2023-03-17T20:06:17.448Z,15.00
2023-03-17T20:11:12.026Z,12.80
2023-03-17T20:16:08.086Z,11.95
2023-03-17T20:21:05.993Z,11.05
2023-03-17T20:25:59.398Z,19.40
2023-03-17T20:30:53.984Z,10.63
2023-03-17T20:35:47.785Z,12.30
2023-03-17T20:40:40.856Z,15.63
2023-03-17T20:45:34.728Z,12.73
2023-03-17T20:50:27.918Z,14.52
2023-03-17T20:55:21.556Z,14.60
2023-03-17T21:00:20.486Z,12.32
2023-03-17T21:05:20.235Z,13.40
2023-03-17T21:10:13.451Z,24.13
2023-03-17T21:15:09.661Z,15.18
2023-03-17T21:20:03.667Z,13.63
2023-03-17T21:24:57.650Z,21.48
2023-03-17T21:29:52.049Z,15.48
2023-03-17T21:34:47.314Z,20.40
2023-03-17T21:39:40.621Z,20.67
2023-03-17T21:44:34.403Z,17.95
2023-03-17T21:49:27.615Z,16.33
2023-03-17T21:54:20.730Z,16.63
2023-03-17T21:59:15.576Z,16.33
2023-03-17T22:04:10.052Z,15.75
2023-03-17T22:09:04.754Z,15.32
2023-03-17T22:13:59.222Z,14.32
2023-03-17T22:18:53.574Z,14.13
2023-03-17T22:23:48.324Z,14.02
2023-03-17T22:28:42.422Z,13.38
2023-03-17T22:33:35.959Z,12.30
2023-03-17T22:38:28.896Z,12.68
2023-03-17T22:43:22.109Z,12.18
2023-03-17T22:48:15.533Z,14.10
2023-03-17T22:53:10.033Z,16.42
2023-03-17T22:58:04.226Z,15.30
2023-03-17T23:02:57.579Z,15.07
2023-03-17T23:07:51.733Z,15.70
2023-03-17T23:12:45.554Z,14.13
2023-03-17T23:17:38.402Z,14.15
2023-03-17T23:22:31.678Z,13.45
2023-03-17T23:27:24.791Z,13.65
2023-03-17T23:32:18.961Z,13.80
2023-03-17T23:37:12.237Z,13.00
2023-03-17T23:42:05.887Z,14.27
2023-03-17T23:46:58.701Z,12.63
2023-03-17T23:51:53.661Z,12.80
2023-03-17T23:56:47.066Z,13.05
